Main page
METAR-TAF:

METAR-TAF

Airports :

Malabo International Airport

Malabo, Equatorial Guinea

latitude: 03-45-18N, longitude: 08-42-31E, elevation: 23 m

Current weather observation

The report was made 1 hour and 3 minutes ago, at 19:00 UTC
Wind 3 kt from the Southwest
Temperature 27°C
Humidity 84%
Pressure 1010 hPa
Visibility: 6000 m
Few clouds at a height of 1200 ft

METAR: FGSL 271900Z 23003KT 6000 FEW012 27/24 Q1010 TEMPO 4000 BR

Time: 21:03 (20:03 UTC)

Forecast

The report was made 3 hours and 3 minutes ago, at 17:00 UTC
Forecast valid from 27 at 18 UTC to 28 at 24 UTC
Wind 6 kt from the West/Southwest
Visibility: 6000 m
Few clouds at a height of 1300 ft
Becoming
from 28 at 07 UTC to 28 at 09 UTC
Visibility: 4500 m
haze
Becoming
from 28 at 16 UTC to 28 at 18 UTC
Visibility: 6000 m

TAF: FGSL 271700Z 2718/2824 24006KT 6000 FEW013 BECMG 2807/2809 4500 HZ BECMG 2816/2818 6000 NSW

Weather observations and forecasts of more than 4000 airports (METAR and TAF reports).

The available stations are represented by yellow and red dots on the map.

Hover mouse over dot to see the name of the station.

Then click to see weather observations and forecasts.

To change the map : click on the green buttons with a black cross to zoom in, on the green button with a dash to zoom out, or on the green arrows for adjacent maps.


METAR-TAF: